sensor_id;sensor_type;location;lat;lon;timestamp;pressure;altitude;pressure_sealevel;temperature;humidity
62976;BME280;49071;0.000;0.000;2023-03-01T05:48:29;102248.78;;;16.26;33.28
62976;BME280;49071;0.000;0.000;2023-03-01T05:51:29;102261.88;;;16.27;32.96
62976;BME280;49071;0.000;0.000;2023-03-01T05:54:30;102265.47;;;16.19;33.42
62976;BME280;49071;0.000;0.000;2023-03-01T05:57:30;102257.75;;;16.11;33.04
62976;BME280;49071;0.000;0.000;2023-03-01T06:00:30;102264.78;;;16.08;33.12
62976;BME280;49071;0.000;0.000;2023-03-01T06:03:30;102262.13;;;16.09;33.12
62976;BME280;49071;0.000;0.000;2023-03-01T06:06:34;102262.97;;;16.11;33.17
62976;BME280;49071;0.000;0.000;2023-03-01T06:09:34;102262.91;;;16.17;32.81
62976;BME280;49071;0.000;0.000;2023-03-01T06:12:35;102262.63;;;16.36;33.18
62976;BME280;49071;0.000;0.000;2023-03-01T06:15:36;102267.47;;;16.62;32.84
62976;BME280;49071;0.000;0.000;2023-03-01T06:18:36;102265.41;;;16.82;33.09
62976;BME280;49071;0.000;0.000;2023-03-01T06:21:37;102275.47;;;17.07;32.71
62976;BME280;49071;0.000;0.000;2023-03-01T06:24:37;102271.84;;;17.15;32.52
62976;BME280;49071;0.000;0.000;2023-03-01T06:27:38;102284.63;;;17.32;31.80
62976;BME280;49071;0.000;0.000;2023-03-01T06:30:38;102281.53;;;17.57;32.04
62976;BME280;49071;0.000;0.000;2023-03-01T06:33:38;102277.53;;;17.84;32.07
62976;BME280;49071;0.000;0.000;2023-03-01T06:36:38;102275.38;;;18.03;31.41
62976;BME280;49071;0.000;0.000;2023-03-01T06:39:39;102282.78;;;18.24;31.51
62976;BME280;49071;0.000;0.000;2023-03-01T06:42:39;102273.06;;;18.28;32.21
62976;BME280;49071;0.000;0.000;2023-03-01T06:45:40;102288.81;;;18.29;32.25
62976;BME280;49071;0.000;0.000;2023-03-01T06:48:41;102283.63;;;18.26;31.70
62976;BME280;49071;0.000;0.000;2023-03-01T06:51:41;102286.31;;;18.23;31.83
62976;BME280;49071;0.000;0.000;2023-03-01T06:54:42;102287.28;;;18.19;32.05
62976;BME280;49071;0.000;0.000;2023-03-01T06:57:42;102283.88;;;18.14;31.71
62976;BME280;49071;0.000;0.000;2023-03-01T07:00:42;102289.25;;;18.09;32.10
62976;BME280;49071;0.000;0.000;2023-03-01T07:03:43;102291.09;;;18.04;31.89
62976;BME280;49071;0.000;0.000;2023-03-01T07:06:44;102293.81;;;18.00;31.69
62976;BME280;49071;0.000;0.000;2023-03-01T07:09:44;102297.44;;;17.94;32.16
62976;BME280;49071;0.000;0.000;2023-03-01T07:12:45;102296.69;;;17.89;31.82
62976;BME280;49071;0.000;0.000;2023-03-01T07:15:46;102295.03;;;17.83;32.18
62976;BME280;49071;0.000;0.000;2023-03-01T07:18:46;102297.72;;;17.80;32.21
62976;BME280;49071;0.000;0.000;2023-03-01T07:21:46;102296.03;;;17.75;32.09
62976;BME280;49071;0.000;0.000;2023-03-01T07:24:46;102298.78;;;17.70;32.26
62976;BME280;49071;0.000;0.000;2023-03-01T07:27:50;102300.66;;;17.63;32.16
62976;BME280;49071;0.000;0.000;2023-03-01T07:30:51;102299.00;;;17.58;32.45
62976;BME280;49071;0.000;0.000;2023-03-01T07:33:51;102299.03;;;17.56;32.21
62976;BME280;49071;0.000;0.000;2023-03-01T07:36:51;102300.88;;;17.51;32.36
62976;BME280;49071;0.000;0.000;2023-03-01T07:39:52;102291.34;;;17.47;32.38
62976;BME280;49071;0.000;0.000;2023-03-01T07:42:55;102294.88;;;17.44;32.70
62976;BME280;49071;0.000;0.000;2023-03-01T07:46:00;102298.44;;;17.42;32.65
62976;BME280;49071;0.000;0.000;2023-03-01T07:49:00;102295.03;;;17.38;32.71
62976;BME280;49071;0.000;0.000;2023-03-01T07:52:00;102290.66;;;17.37;32.74
62976;BME280;49071;0.000;0.000;2023-03-01T07:55:00;102281.13;;;17.33;32.85
62976;BME280;49071;0.000;0.000;2023-03-01T07:58:01;102288.06;;;17.34;32.84
62976;BME280;49071;0.000;0.000;2023-03-01T08:01:02;102282.88;;;17.33;32.38
62976;BME280;49071;0.000;0.000;2023-03-01T08:04:02;102284.66;;;17.31;32.70
62976;BME280;49071;0.000;0.000;2023-03-01T08:07:05;102282.06;;;17.28;32.58
62976;BME280;49071;0.000;0.000;2023-03-01T08:10:05;102276.84;;;17.28;32.78
62976;BME280;49071;0.000;0.000;2023-03-01T08:13:06;102276.91;;;17.25;32.61
62976;BME280;49071;0.000;0.000;2023-03-01T08:16:07;102276.03;;;17.24;32.78
62976;BME280;49071;0.000;0.000;2023-03-01T08:19:09;102271.69;;;17.23;32.50
62976;BME280;49071;0.000;0.000;2023-03-01T08:22:09;102269.06;;;17.23;32.64
62976;BME280;49071;0.000;0.000;2023-03-01T08:25:10;102270.78;;;17.24;32.58
62976;BME280;49071;0.000;0.000;2023-03-01T08:28:10;102261.25;;;17.21;32.78
62976;BME280;49071;0.000;0.000;2023-03-01T08:34:19;102262.13;;;17.20;32.59
62976;BME280;49071;0.000;0.000;2023-03-01T08:37:19;102259.47;;;17.22;32.48
62976;BME280;49071;0.000;0.000;2023-03-01T08:40:20;102261.09;;;17.29;32.71
62976;BME280;49071;0.000;0.000;2023-03-01T08:43:20;102253.06;;;17.38;32.52
62976;BME280;49071;0.000;0.000;2023-03-01T08:46:20;102271.16;;;17.51;32.32
62976;BME280;49071;0.000;0.000;2023-03-01T08:49:20;102261.34;;;17.60;32.44
62976;BME280;49071;0.000;0.000;2023-03-01T08:52:20;102257.56;;;17.75;32.39
62976;BME280;49071;0.000;0.000;2023-03-01T08:55:21;102260.00;;;17.86;32.33
62976;BME280;49071;0.000;0.000;2023-03-01T08:58:21;102266.66;;;18.02;32.25
62976;BME280;49071;0.000;0.000;2023-03-01T09:01:21;102265.53;;;18.12;32.25
62976;BME280;49071;0.000;0.000;2023-03-01T09:04:21;102260.78;;;18.30;32.15
62976;BME280;49071;0.000;0.000;2023-03-01T09:07:21;102262.31;;;18.38;31.85
62976;BME280;49071;0.000;0.000;2023-03-01T09:10:21;102262.09;;;18.48;32.11
62976;BME280;49071;0.000;0.000;2023-03-01T09:13:22;102253.84;;;18.63;32.01
62976;BME280;49071;0.000;0.000;2023-03-01T09:16:24;102252.75;;;18.73;31.84
62976;BME280;49071;0.000;0.000;2023-03-01T09:19:24;102254.31;;;18.80;31.71
62976;BME280;49071;0.000;0.000;2023-03-01T09:22:25;102254.00;;;18.93;31.94
62976;BME280;49071;0.000;0.000;2023-03-01T09:25:25;102258.09;;;19.03;32.00
62976;BME280;49071;0.000;0.000;2023-03-01T09:28:25;102250.81;;;19.14;31.26
62976;BME280;49071;0.000;0.000;2023-03-01T09:31:25;102253.16;;;19.25;31.78
62976;BME280;49071;0.000;0.000;2023-03-01T09:34:26;102253.72;;;19.36;31.48
62976;BME280;49071;0.000;0.000;2023-03-01T09:37:26;102250.91;;;19.42;31.43
62976;BME280;49071;0.000;0.000;2023-03-01T09:40:26;102259.56;;;19.47;31.41
62976;BME280;49071;0.000;0.000;2023-03-01T09:43:40;102245.50;;;19.47;31.48
62976;BME280;49071;0.000;0.000;2023-03-01T09:46:44;102257.81;;;19.46;31.19
62976;BME280;49071;0.000;0.000;2023-03-01T09:49:45;102253.53;;;19.42;31.52
62976;BME280;49071;0.000;0.000;2023-03-01T09:53:07;102250.97;;;19.41;31.65
62976;BME280;49071;0.000;0.000;2023-03-01T10:02:24;102253.59;;;19.41;31.35
62976;BME280;49071;0.000;0.000;2023-03-01T10:08:29;102247.34;;;19.12;31.57
62976;BME280;49071;0.000;0.000;2023-03-01T10:11:32;102244.94;;;19.04;31.54
62976;BME280;49071;0.000;0.000;2023-03-01T10:17:39;102244.53;;;18.85;31.57
62976;BME280;49071;0.000;0.000;2023-03-01T10:23:42;102234.25;;;18.76;31.87
62976;BME280;49071;0.000;0.000;2023-03-01T10:29:46;102220.78;;;18.54;32.27
62976;BME280;49071;0.000;0.000;2023-03-01T10:32:49;102219.13;;;18.50;32.57
62976;BME280;49071;0.000;0.000;2023-03-01T10:35:51;102214.94;;;18.41;32.41
62976;BME280;49071;0.000;0.000;2023-03-01T10:44:57;102215.63;;;18.50;32.65
62976;BME280;49071;0.000;0.000;2023-03-01T10:48:03;102215.47;;;18.56;32.72
62976;BME280;49071;0.000;0.000;2023-03-01T10:51:04;102206.63;;;18.60;32.60
62976;BME280;49071;0.000;0.000;2023-03-01T10:54:06;102206.56;;;18.63;32.63
62976;BME280;49071;0.000;0.000;2023-03-01T10:57:24;102201.09;;;18.69;32.28
62976;BME280;49071;0.000;0.000;2023-03-01T11:00:27;102200.19;;;18.73;32.42
62976;BME280;49071;0.000;0.000;2023-03-01T11:03:31;102191.25;;;18.79;32.67
62976;BME280;49071;0.000;0.000;2023-03-01T11:06:37;102194.59;;;18.85;32.46
62976;BME280;49071;0.000;0.000;2023-03-01T11:09:37;102196.16;;;18.93;32.32
62976;BME280;49071;0.000;0.000;2023-03-01T11:12:38;102187.28;;;18.97;32.08
62976;BME280;49071;0.000;0.000;2023-03-01T11:15:38;102191.50;;;19.02;32.20
62976;BME280;49071;0.000;0.000;2023-03-01T11:18:39;102182.63;;;19.06;31.84
62976;BME280;49071;0.000;0.000;2023-03-01T11:24:58;102180.78;;;19.10;31.75
62976;BME280;49071;0.000;0.000;2023-03-01T11:27:59;102186.78;;;19.15;31.67
62976;BME280;49071;0.000;0.000;2023-03-01T11:31:08;102186.72;;;19.17;31.45
62976;BME280;49071;0.000;0.000;2023-03-01T11:34:11;102189.41;;;19.15;31.54
62976;BME280;49071;0.000;0.000;2023-03-01T11:37:21;102192.13;;;19.12;31.35
62976;BME280;49071;0.000;0.000;2023-03-01T11:40:25;102188.72;;;19.08;31.67
62976;BME280;49071;0.000;0.000;2023-03-01T11:43:33;102193.22;;;19.03;31.76
62976;BME280;49071;0.000;0.000;2023-03-01T12:02:49;102170.75;;;18.57;32.03
62976;BME280;49071;0.000;0.000;2023-03-01T12:15:15;102152.81;;;18.40;32.21
62976;BME280;49071;0.000;0.000;2023-03-01T12:30:46;102136.56;;;18.59;32.07
62976;BME280;49071;0.000;0.000;2023-03-01T12:33:53;102125.88;;;18.65;31.93
62976;BME280;49071;0.000;0.000;2023-03-01T12:46:21;102110.06;;;18.99;31.54
62976;BME280;49071;0.000;0.000;2023-03-01T12:49:27;102109.75;;;19.10;31.83
62976;BME280;49071;0.000;0.000;2023-03-01T12:55:33;102104.47;;;19.11;31.43
62976;BME280;49071;0.000;0.000;2023-03-01T12:58:35;102089.69;;;19.07;31.53
62976;BME280;49071;0.000;0.000;2023-03-01T13:05:01;102097.84;;;18.98;31.49
62976;BME280;49071;0.000;0.000;2023-03-01T13:08:13;102094.53;;;18.92;31.58
62976;BME280;49071;0.000;0.000;2023-03-01T13:11:17;102088.63;;;18.83;31.73
62976;BME280;49071;0.000;0.000;2023-03-01T13:17:32;102082.03;;;18.67;31.64
62976;BME280;49071;0.000;0.000;2023-03-01T13:23:43;102078.09;;;18.51;31.96
62976;BME280;49071;0.000;0.000;2023-03-01T13:30:12;102078.47;;;18.35;31.92
62976;BME280;49071;0.000;0.000;2023-03-01T13:39:30;102070.59;;;18.37;32.29
62976;BME280;49071;0.000;0.000;2023-03-01T13:42:35;102067.97;;;18.37;32.27
62976;BME280;49071;0.000;0.000;2023-03-01T13:45:40;102065.94;;;18.47;32.63
62976;BME280;49071;0.000;0.000;2023-03-01T13:48:40;102053.50;;;18.53;32.39
62976;BME280;49071;0.000;0.000;2023-03-01T13:51:42;102050.56;;;18.64;32.24
62976;BME280;49071;0.000;0.000;2023-03-01T13:54:46;102050.25;;;18.76;32.46
62976;BME280;49071;0.000;0.000;2023-03-01T13:57:47;102044.47;;;18.95;31.76
62976;BME280;49071;0.000;0.000;2023-03-01T14:00:54;102038.06;;;19.03;32.08
62976;BME280;49071;0.000;0.000;2023-03-01T14:03:55;102028.91;;;19.17;31.72
62976;BME280;49071;0.000;0.000;2023-03-01T14:07:12;102035.59;;;19.27;31.66
62976;BME280;49071;0.000;0.000;2023-03-01T14:10:12;102029.41;;;19.29;31.73
62976;BME280;49071;0.000;0.000;2023-03-01T14:13:18;102029.66;;;19.22;31.68
62976;BME280;49071;0.000;0.000;2023-03-01T14:19:29;102026.44;;;19.12;31.50
62976;BME280;49071;0.000;0.000;2023-03-01T14:22:32;102021.31;;;19.07;31.66
62976;BME280;49071;0.000;0.000;2023-03-01T14:25:34;102016.31;;;18.98;31.64
62976;BME280;49071;0.000;0.000;2023-03-01T14:28:35;102014.81;;;18.90;31.84
62976;BME280;49071;0.000;0.000;2023-03-01T14:31:38;102016.72;;;18.84;31.79
62976;BME280;49071;0.000;0.000;2023-03-01T14:34:43;102012.56;;;18.77;31.66
62976;BME280;49071;0.000;0.000;2023-03-01T14:37:44;102015.41;;;18.68;31.67
62976;BME280;49071;0.000;0.000;2023-03-01T14:40:45;102009.53;;;18.60;31.85
62976;BME280;49071;0.000;0.000;2023-03-01T14:43:46;101997.50;;;18.51;32.18
62976;BME280;49071;0.000;0.000;2023-03-01T14:46:51;101996.88;;;18.43;32.12
62976;BME280;49071;0.000;0.000;2023-03-01T14:49:53;101995.25;;;18.37;32.28
62976;BME280;49071;0.000;0.000;2023-03-01T14:52:57;101998.81;;;18.35;32.56
62976;BME280;49071;0.000;0.000;2023-03-01T14:56:01;101987.47;;;18.34;32.28
62976;BME280;49071;0.000;0.000;2023-03-01T14:59:04;101984.84;;;18.34;32.49
62976;BME280;49071;0.000;0.000;2023-03-01T15:02:08;101987.38;;;18.37;32.69
62976;BME280;49071;0.000;0.000;2023-03-01T15:05:18;101985.47;;;18.42;32.49
62976;BME280;49071;0.000;0.000;2023-03-01T15:08:20;101987.13;;;18.47;33.07
62976;BME280;49071;0.000;0.000;2023-03-01T15:11:23;101989.38;;;18.59;32.95
62976;BME280;49071;0.000;0.000;2023-03-01T15:14:25;101993.44;;;18.71;32.92
62976;BME280;49071;0.000;0.000;2023-03-01T15:17:28;101981.88;;;18.78;32.52
62976;BME280;49071;0.000;0.000;2023-03-01T15:20:30;101977.75;;;18.99;32.41
62976;BME280;49071;0.000;0.000;2023-03-01T15:23:35;101984.34;;;19.12;32.56
62976;BME280;49071;0.000;0.000;2023-03-01T15:26:37;101983.91;;;19.26;32.44
62976;BME280;49071;0.000;0.000;2023-03-01T15:29:39;101982.31;;;19.20;32.59
62976;BME280;49071;0.000;0.000;2023-03-01T15:32:40;101996.31;;;19.22;32.85
62976;BME280;49071;0.000;0.000;2023-03-01T15:35:43;101998.22;;;19.17;32.04
62976;BME280;49071;0.000;0.000;2023-03-01T15:38:58;102001.84;;;19.13;32.22
62976;BME280;49071;0.000;0.000;2023-03-01T15:41:59;101990.66;;;19.06;32.40
62976;BME280;49071;0.000;0.000;2023-03-01T15:48:20;101988.53;;;18.90;32.55
62976;BME280;49071;0.000;0.000;2023-03-01T15:51:22;101987.06;;;18.79;32.52
62976;BME280;49071;0.000;0.000;2023-03-01T15:54:24;101981.16;;;18.71;32.92
62976;BME280;49071;0.000;0.000;2023-03-01T15:57:24;101983.78;;;18.71;33.48
62976;BME280;49071;0.000;0.000;2023-03-01T16:00:25;101980.41;;;18.68;33.25
62976;BME280;49071;0.000;0.000;2023-03-01T16:03:25;101980.63;;;18.60;33.60
62976;BME280;49071;0.000;0.000;2023-03-01T16:06:25;101984.22;;;18.56;33.73
62976;BME280;49071;0.000;0.000;2023-03-01T16:09:26;101980.88;;;18.51;33.55
62976;BME280;49071;0.000;0.000;2023-03-01T16:12:26;101973.13;;;18.46;33.90
62976;BME280;49071;0.000;0.000;2023-03-01T16:15:27;101973.25;;;18.41;33.61
62976;BME280;49071;0.000;0.000;2023-03-01T16:18:29;101956.78;;;18.36;33.98
62976;BME280;49071;0.000;0.000;2023-03-01T16:21:29;101955.09;;;18.32;34.07
62976;BME280;49071;0.000;0.000;2023-03-01T16:24:30;101951.69;;;18.30;34.31
62976;BME280;49071;0.000;0.000;2023-03-01T16:27:30;101945.41;;;18.36;34.41
62976;BME280;49071;0.000;0.000;2023-03-01T16:30:31;101942.63;;;18.40;34.36
62976;BME280;49071;0.000;0.000;2023-03-01T16:33:31;101945.94;;;18.47;34.68
62976;BME280;49071;0.000;0.000;2023-03-01T16:36:32;101951.84;;;18.55;34.44
62976;BME280;49071;0.000;0.000;2023-03-01T16:39:32;101956.00;;;18.62;34.49
62976;BME280;49071;0.000;0.000;2023-03-01T16:42:35;101956.66;;;18.71;34.09
62976;BME280;49071;0.000;0.000;2023-03-01T16:45:35;101955.53;;;18.79;34.12
62976;BME280;49071;0.000;0.000;2023-03-01T16:48:35;101966.63;;;18.89;33.46
62976;BME280;49071;0.000;0.000;2023-03-01T16:51:36;101966.22;;;19.03;33.38
62976;BME280;49071;0.000;0.000;2023-03-01T16:54:36;101982.38;;;19.19;33.55
62976;BME280;49071;0.000;0.000;2023-03-01T16:57:37;101987.13;;;19.35;33.48
62976;BME280;49071;0.000;0.000;2023-03-01T17:00:37;101983.53;;;19.38;33.33
62976;BME280;49071;0.000;0.000;2023-03-01T17:03:38;101986.34;;;19.32;33.35
62976;BME280;49071;0.000;0.000;2023-03-01T17:06:38;101985.63;;;19.27;33.25
62976;BME280;49071;0.000;0.000;2023-03-01T17:09:38;101993.81;;;19.18;33.21
62976;BME280;49071;0.000;0.000;2023-03-01T17:12:39;101993.09;;;19.13;33.29
62976;BME280;49071;0.000;0.000;2023-03-01T17:15:39;101983.75;;;19.04;33.59
62976;BME280;49071;0.000;0.000;2023-03-01T17:18:40;101993.66;;;18.94;32.91
62976;BME280;49071;0.000;0.000;2023-03-01T17:21:40;101995.63;;;18.87;33.04
62976;BME280;49071;0.000;0.000;2023-03-01T17:24:40;101992.34;;;18.79;33.43
62976;BME280;49071;0.000;0.000;2023-03-01T17:27:41;101986.38;;;18.74;33.76
62976;BME280;49071;0.000;0.000;2023-03-01T17:30:42;101982.09;;;18.70;33.54
62976;BME280;49071;0.000;0.000;2023-03-01T17:33:42;101989.22;;;18.65;33.57
62976;BME280;49071;0.000;0.000;2023-03-01T17:36:43;101977.16;;;18.58;33.83
62976;BME280;49071;0.000;0.000;2023-03-01T17:39:43;101987.00;;;18.51;33.57
62976;BME280;49071;0.000;0.000;2023-03-01T17:42:43;101981.91;;;18.45;34.11
62976;BME280;49071;0.000;0.000;2023-03-01T17:45:44;101972.44;;;18.39;33.86
62976;BME280;49071;0.000;0.000;2023-03-01T17:48:47;101978.59;;;18.38;33.99
62976;BME280;49071;0.000;0.000;2023-03-01T17:51:48;101980.28;;;18.41;34.17
62976;BME280;49071;0.000;0.000;2023-03-01T17:54:49;101984.53;;;18.45;33.71
62976;BME280;49071;0.000;0.000;2023-03-01T17:57:49;101991.25;;;18.55;34.02
62976;BME280;49071;0.000;0.000;2023-03-01T18:00:50;101978.69;;;18.67;33.55
62976;BME280;49071;0.000;0.000;2023-03-01T18:03:51;101980.97;;;18.79;33.85
62976;BME280;49071;0.000;0.000;2023-03-01T18:06:51;101973.75;;;18.85;33.47
62976;BME280;49071;0.000;0.000;2023-03-01T18:09:51;101983.16;;;18.94;33.79
62976;BME280;49071;0.000;0.000;2023-03-01T18:12:52;101988.25;;;18.99;33.53
62976;BME280;49071;0.000;0.000;2023-03-01T18:15:52;101978.41;;;19.05;33.43
62976;BME280;49071;0.000;0.000;2023-03-01T18:18:53;101981.00;;;19.07;33.57
62976;BME280;49071;0.000;0.000;2023-03-01T18:21:53;101976.47;;;19.12;33.54
62976;BME280;49071;0.000;0.000;2023-03-01T18:24:54;101980.72;;;19.16;33.55
62976;BME280;49071;0.000;0.000;2023-03-01T18:27:54;101982.47;;;19.16;33.79
62976;BME280;49071;0.000;0.000;2023-03-01T18:30:55;101980.88;;;19.11;34.22
62976;BME280;49071;0.000;0.000;2023-03-01T18:33:55;101976.72;;;19.03;33.72
62976;BME280;49071;0.000;0.000;2023-03-01T18:36:56;101970.81;;;18.96;33.69
62976;BME280;49071;0.000;0.000;2023-03-01T18:39:56;101963.00;;;18.93;33.94
62976;BME280;49071;0.000;0.000;2023-03-01T18:42:56;101963.22;;;18.87;33.70
62976;BME280;49071;0.000;0.000;2023-03-01T18:45:57;101965.09;;;18.82;33.83
62976;BME280;49071;0.000;0.000;2023-03-01T18:48:57;101957.41;;;18.76;33.99
62976;BME280;49071;0.000;0.000;2023-03-01T18:51:57;101961.09;;;18.69;34.14
62976;BME280;49071;0.000;0.000;2023-03-01T18:54:57;101958.63;;;18.62;33.93
62976;BME280;49071;0.000;0.000;2023-03-01T18:57:58;101955.28;;;18.57;34.22
62976;BME280;49071;0.000;0.000;2023-03-01T19:00:58;101957.19;;;18.52;34.33
62976;BME280;49071;0.000;0.000;2023-03-01T19:04:00;101955.53;;;18.48;34.07
62976;BME280;49071;0.000;0.000;2023-03-01T19:07:00;101948.66;;;18.44;34.11
62976;BME280;49071;0.000;0.000;2023-03-01T19:10:01;101950.38;;;18.45;34.54
62976;BME280;49071;0.000;0.000;2023-03-01T19:13:01;101949.34;;;18.51;34.57
62976;BME280;49071;0.000;0.000;2023-03-01T19:16:02;101960.47;;;18.60;34.77
62976;BME280;49071;0.000;0.000;2023-03-01T19:19:03;101957.75;;;18.63;34.51
62976;BME280;49071;0.000;0.000;2023-03-01T19:22:05;101954.97;;;18.68;34.41
62976;BME280;49071;0.000;0.000;2023-03-01T19:25:06;101949.41;;;18.79;34.66
62976;BME280;49071;0.000;0.000;2023-03-01T19:28:07;101952.63;;;18.88;34.24
62976;BME280;49071;0.000;0.000;2023-03-01T19:31:08;101961.03;;;19.00;34.42
62976;BME280;49071;0.000;0.000;2023-03-01T19:34:09;101970.44;;;19.08;33.66
62976;BME280;49071;0.000;0.000;2023-03-01T19:37:09;101975.31;;;19.21;33.63
62976;BME280;49071;0.000;0.000;2023-03-01T19:40:09;101979.28;;;19.34;33.60
62976;BME280;49071;0.000;0.000;2023-03-01T19:43:10;101985.09;;;19.44;33.40
62976;BME280;49071;0.000;0.000;2023-03-01T19:46:10;101986.63;;;19.51;33.81
62976;BME280;49071;0.000;0.000;2023-03-01T19:49:10;101985.66;;;19.53;33.68
62976;BME280;49071;0.000;0.000;2023-03-01T19:52:11;101986.75;;;19.48;33.69
62976;BME280;49071;0.000;0.000;2023-03-01T19:55:11;101988.53;;;19.46;33.70
62976;BME280;49071;0.000;0.000;2023-03-01T19:58:11;101981.66;;;19.42;33.88
62976;BME280;49071;0.000;0.000;2023-03-01T20:01:15;101985.53;;;19.30;33.76
62976;BME280;49071;0.000;0.000;2023-03-01T20:04:15;101985.84;;;19.21;33.89
62976;BME280;49071;0.000;0.000;2023-03-01T20:07:16;101993.00;;;19.16;34.04
62976;BME280;49071;0.000;0.000;2023-03-01T20:10:16;101987.91;;;19.11;34.03
62976;BME280;49071;0.000;0.000;2023-03-01T20:13:16;101991.63;;;19.04;34.00
62976;BME280;49071;0.000;0.000;2023-03-01T20:16:20;101997.91;;;18.98;33.88
62976;BME280;49071;0.000;0.000;2023-03-01T20:19:21;101997.19;;;18.93;34.12
62976;BME280;49071;0.000;0.000;2023-03-01T20:22:22;101979.00;;;18.85;33.89
62976;BME280;49071;0.000;0.000;2023-03-01T20:25:22;101977.44;;;18.80;33.99
62976;BME280;49071;0.000;0.000;2023-03-01T20:28:22;101979.34;;;18.75;34.31
62976;BME280;49071;0.000;0.000;2023-03-01T20:31:24;101970.75;;;18.68;34.39
62976;BME280;49071;0.000;0.000;2023-03-01T20:34:28;101971.75;;;18.64;34.56
62976;BME280;49071;0.000;0.000;2023-03-01T20:37:28;101977.22;;;18.56;34.59
62976;BME280;49071;0.000;0.000;2023-03-01T20:40:28;101986.13;;;18.51;34.75
62976;BME280;49071;0.000;0.000;2023-03-01T20:43:30;101994.03;;;18.51;34.61
62976;BME280;49071;0.000;0.000;2023-03-01T20:46:31;101989.75;;;18.47;34.35
62976;BME280;49071;0.000;0.000;2023-03-01T20:49:31;101986.38;;;18.41;34.47
62976;BME280;49071;0.000;0.000;2023-03-01T20:52:31;101988.06;;;18.44;34.34
62976;BME280;49071;0.000;0.000;2023-03-01T20:55:32;101975.75;;;18.46;34.14
62976;BME280;49071;0.000;0.000;2023-03-01T20:58:32;101979.94;;;18.53;34.25
62976;BME280;49071;0.000;0.000;2023-03-01T21:01:33;101976.34;;;18.56;34.06
